VVDNVDPP

Guest
Details From VVDN - DANANG INTL
To VDPP - Phnom Penh Intl
Flight Number -
Tags generated
Created
Modified
Stats Distance 357 nm / 661 km
Max Altitude 34,000 ft / 10,363 m
Waypoints 7
Social Downloads 0
Likes 0
Share VATSIM

Download

Looking for another format? Having issues loading an existing format? Contact us
Advertisement - Login to hide

Notes

Basic altitude profile: - Ascent Rate: 2500ft/min - Ascent Speed: 250kts - Cruise Altitude: 35000ft - Cruise Speed: 420kts - Descent Rate: 1500ft/min - Descent Speed: 250kts Options: - Use NATs: yes - Use PACOTS: yes - Use low airways: yes - Use high airways: yes

Route

VVDN TANNA A1 PAPRA R575 VIBUN B329 PNH VDPP

ID Type Via Altitude Latitude Longitude Leg Dist Tot Dist Heading (true) Name
O VVDN APT - 0 ft / 0 m 16.04390˚ 108.19940˚ - 0 nm - DANANG INTL
TANNA FIX - 10,500 ft / 3,200 m 15.90333˚ 107.65889˚ 32 nm 32 nm 255° / 255° -
PAPRA FIX A1 (AWY-LO) 26,000 ft / 7,925 m 15.76667˚ 107.18333˚ 28 nm 61 nm 253° / 253° -
LAVAN FIX R575 (AWY-HI) 34,000 ft / 10,363 m 14.14217˚ 105.73000˚ 128 nm 189 nm 221° / 221° -
VIBUN FIX R575 (AWY-HI) 28,900 ft / 8,809 m 13.79667˚ 105.43167˚ 27 nm 217 nm 220° / 220° -
PNH VOR B329 (AWY-LO) 10,000 ft / 3,048 m 11.54667˚ 104.84167˚ 139 nm 356 nm 194° / 194° PHNOM PENH VOR-DME
O VDPP APT - 0 ft / 0 m 11.54654˚ 104.84414˚ 0 nm 356 nm 93° / 93° Phnom Penh Intl

Altitude Profile

Advertisement - Login to hide

Weather


0- 5 10 15 20 25 30 35+ Temperature / ° C

Clouds and Precipitation
Forecast for 2017-12-12 06:00 UTC. Updated an hour ago

Ground ~20,000 ft ~40,000 ft Winds

VVDN

Details ICAO VVDN (DAD)
Name DANANG INTL
Region Vietnam
Timezone Asia/Ho_Chi_Minh (UTC+7.0)
Stats Elevation 33 ft / 10 m (AMSL)
Location 16.043901° 108.199400°
Runways 2
Magnetic Variation 1.174° W

METAR

VVDN 120230Z 00000KT 5000 BR FEW012 BKN050 26/21 Q1017 NOSIG

Decode

TAF

TAF VVDN 112300Z 1200/1224 30005KT 4000 BR SCT012 BKN050 TEMPO 1200/1202 2500 RA BR BECMG 1202/1203 6000 NSW BECMG 1213/1214 4000 BR BECMG 1220/1221 2500 BR

Decode

Departure Runways

ID Width Length Bearing (true) Bearing (mag) Surface Threshold Offset Overrun Length
17L 148 ft / 45 m 10,053 ft / 3,064 m 172.06° 173.23° Asphalt 0 ft / 0 m 1,000 ft / 305 m
17R 148 ft / 45 m 10,052 ft / 3,064 m 172.06° 173.23° Asphalt 0 ft / 0 m 1,000 ft / 305 m
35L 148 ft / 45 m 10,052 ft / 3,064 m 352.06° 353.23° Asphalt 0 ft / 0 m 1,000 ft / 305 m
35R 148 ft / 45 m 10,053 ft / 3,064 m 352.06° 353.23° Asphalt 0 ft / 0 m 1,000 ft / 305 m

VDPP

Details ICAO VDPP (PNH)
Name Phnom Penh Intl
Region Cambodia
Timezone Asia/Phnom_Penh (UTC+7.0)
Stats Elevation 40 ft / 12 m (AMSL)
Location 11.546542° 104.844142°
Runways 1
Magnetic Variation 0.493° W

METAR

VDPP 120230Z VRB02KT CAVOK 29/22 Q1013

Decode

TAF

TAF VDPP 112300Z 1200/1218 07006KT 9999 FEW017 SCT040= TAF VDSR 112300Z 1200/1218 05005KT 9999 FEW017

Decode

Destination Runways

ID Width Length Bearing (true) Bearing (mag) Surface Threshold Offset Overrun Length
05 144 ft / 44 m 9,815 ft / 2,992 m 45.61° 46.10° Asphalt 400 ft / 122 m 0 ft / 0 m
23 144 ft / 44 m 9,815 ft / 2,992 m 225.61° 226.10° Asphalt 492 ft / 150 m 0 ft / 0 m

Approach Navaids

Runway Type Ident Frequency Range Bearing (true) Bearing (mag) Slope Elevation
23 Localiser IPNP 109.70 MHz 18 nm / 33 km 225.62° 226.11° - 40 ft / 12 m (AMSL)
23 Glidescope IPNP 109.70 MHz 10 nm / 19 km 225.61° 226.10° 3.00° 37 ft / 11 m (AMSL)

Popular Alternatives